sensor_id;sensor_type;location;lat;lon;timestamp;P1;durP1;ratioP1;P2;durP2;ratioP2
4527;SDS011;62320;51.520;6.818;2023-04-24T00:09:50;3.50;;;1.17;;
4527;SDS011;62320;51.520;6.818;2023-04-24T00:19:51;4.07;;;1.08;;
4527;SDS011;62320;51.520;6.818;2023-04-24T00:29:59;4.70;;;1.13;;
4527;SDS011;62320;51.520;6.818;2023-04-24T00:40:00;4.60;;;1.60;;
4527;SDS011;62320;51.520;6.818;2023-04-24T00:50:02;3.83;;;1.40;;
4527;SDS011;62320;51.520;6.818;2023-04-24T01:00:05;5.97;;;1.95;;
4527;SDS011;62320;51.520;6.818;2023-04-24T01:10:09;5.90;;;2.33;;
4527;SDS011;62320;51.520;6.818;2023-04-24T01:20:11;7.10;;;2.90;;
4527;SDS011;62320;51.520;6.818;2023-04-24T01:30:12;7.65;;;3.17;;
4527;SDS011;62320;51.520;6.818;2023-04-24T01:40:14;7.23;;;3.60;;
4527;SDS011;62320;51.520;6.818;2023-04-24T01:50:16;9.83;;;3.80;;
4527;SDS011;62320;51.520;6.818;2023-04-24T02:00:19;10.73;;;3.60;;
4527;SDS011;62320;51.520;6.818;2023-04-24T02:10:20;9.50;;;4.40;;
4527;SDS011;62320;51.520;6.818;2023-04-24T02:20:22;7.37;;;3.53;;
4527;SDS011;62320;51.520;6.818;2023-04-24T02:30:23;10.38;;;4.95;;
4527;SDS011;62320;51.520;6.818;2023-04-24T02:40:25;10.38;;;4.72;;
4527;SDS011;62320;51.520;6.818;2023-04-24T02:50:26;13.33;;;5.43;;
4527;SDS011;62320;51.520;6.818;2023-04-24T03:00:28;15.83;;;6.00;;
4527;SDS011;62320;51.520;6.818;2023-04-24T03:10:29;14.68;;;6.40;;
4527;SDS011;62320;51.520;6.818;2023-04-24T03:20:31;18.97;;;7.07;;
4527;SDS011;62320;51.520;6.818;2023-04-24T03:30:33;16.47;;;7.00;;
4527;SDS011;62320;51.520;6.818;2023-04-24T03:40:34;16.33;;;7.25;;
4527;SDS011;62320;51.520;6.818;2023-04-24T03:50:36;12.73;;;5.73;;
4527;SDS011;62320;51.520;6.818;2023-04-24T04:00:38;19.23;;;7.93;;
4527;SDS011;62320;51.520;6.818;2023-04-24T04:10:41;18.15;;;8.70;;
4527;SDS011;62320;51.520;6.818;2023-04-24T04:20:42;16.15;;;7.55;;
4527;SDS011;62320;51.520;6.818;2023-04-24T04:30:44;17.03;;;7.53;;
4527;SDS011;62320;51.520;6.818;2023-04-24T04:40:46;15.30;;;7.57;;
4527;SDS011;62320;51.520;6.818;2023-04-24T04:50:48;17.40;;;7.50;;
4527;SDS011;62320;51.520;6.818;2023-04-24T05:00:49;14.43;;;6.37;;
4527;SDS011;62320;51.520;6.818;2023-04-24T05:10:51;15.23;;;7.23;;
4527;SDS011;62320;51.520;6.818;2023-04-24T05:20:52;13.73;;;5.88;;
4527;SDS011;62320;51.520;6.818;2023-04-24T05:30:54;12.37;;;5.20;;
4527;SDS011;62320;51.520;6.818;2023-04-24T05:41:00;11.97;;;5.70;;
4527;SDS011;62320;51.520;6.818;2023-04-24T05:51:02;14.10;;;5.72;;
4527;SDS011;62320;51.520;6.818;2023-04-24T06:01:03;14.83;;;6.90;;
4527;SDS011;62320;51.520;6.818;2023-04-24T06:11:05;13.20;;;6.10;;
4527;SDS011;62320;51.520;6.818;2023-04-24T06:21:06;15.27;;;7.07;;
4527;SDS011;62320;51.520;6.818;2023-04-24T06:31:08;12.82;;;6.78;;
4527;SDS011;62320;51.520;6.818;2023-04-24T06:41:10;13.93;;;6.17;;
4527;SDS011;62320;51.520;6.818;2023-04-24T06:51:11;14.17;;;6.13;;
4527;SDS011;62320;51.520;6.818;2023-04-24T07:01:13;10.70;;;5.22;;
4527;SDS011;62320;51.520;6.818;2023-04-24T07:11:14;7.87;;;3.10;;
4527;SDS011;62320;51.520;6.818;2023-04-24T07:21:16;8.17;;;3.80;;
4527;SDS011;62320;51.520;6.818;2023-04-24T07:31:18;5.78;;;2.28;;
4527;SDS011;62320;51.520;6.818;2023-04-24T07:41:19;5.17;;;1.33;;
4527;SDS011;62320;51.520;6.818;2023-04-24T07:51:21;4.20;;;1.10;;
4527;SDS011;62320;51.520;6.818;2023-04-24T08:01:23;4.55;;;1.33;;
4527;SDS011;62320;51.520;6.818;2023-04-24T08:11:24;4.25;;;1.23;;
4527;SDS011;62320;51.520;6.818;2023-04-24T08:21:26;3.70;;;1.07;;
4527;SDS011;62320;51.520;6.818;2023-04-24T08:31:28;4.67;;;1.40;;
4527;SDS011;62320;51.520;6.818;2023-04-24T08:41:30;4.32;;;1.50;;
4527;SDS011;62320;51.520;6.818;2023-04-24T08:51:32;4.43;;;1.30;;
4527;SDS011;62320;51.520;6.818;2023-04-24T09:01:34;3.97;;;1.10;;
4527;SDS011;62320;51.520;6.818;2023-04-24T09:11:36;4.40;;;1.38;;
4527;SDS011;62320;51.520;6.818;2023-04-24T09:21:38;5.83;;;2.40;;
4527;SDS011;62320;51.520;6.818;2023-04-24T09:31:39;9.07;;;2.97;;
4527;SDS011;62320;51.520;6.818;2023-04-24T09:41:48;8.23;;;3.63;;
4527;SDS011;62320;51.520;6.818;2023-04-24T09:52:06;13.07;;;4.95;;
4527;SDS011;62320;51.520;6.818;2023-04-24T10:02:16;14.23;;;5.20;;
4527;SDS011;62320;51.520;6.818;2023-04-24T10:12:20;9.53;;;4.23;;
4527;SDS011;62320;51.520;6.818;2023-04-24T10:22:22;6.45;;;2.92;;
4527;SDS011;62320;51.520;6.818;2023-04-24T10:32:24;9.70;;;3.50;;
4527;SDS011;62320;51.520;6.818;2023-04-24T10:42:27;11.30;;;3.60;;
4527;SDS011;62320;51.520;6.818;2023-04-24T10:52:43;9.38;;;3.17;;
4527;SDS011;62320;51.520;6.818;2023-04-24T11:02:49;7.30;;;2.37;;
4527;SDS011;62320;51.520;6.818;2023-04-24T11:12:54;12.40;;;3.60;;
4527;SDS011;62320;51.520;6.818;2023-04-24T11:22:55;7.00;;;2.40;;
4527;SDS011;62320;51.520;6.818;2023-04-24T11:33:05;8.07;;;2.97;;
4527;SDS011;62320;51.520;6.818;2023-04-24T11:43:07;11.47;;;3.17;;
4527;SDS011;62320;51.520;6.818;2023-04-24T11:53:10;10.43;;;3.07;;
4527;SDS011;62320;51.520;6.818;2023-04-24T12:03:12;6.30;;;1.90;;
4527;SDS011;62320;51.520;6.818;2023-04-24T12:13:14;7.50;;;2.73;;
4527;SDS011;62320;51.520;6.818;2023-04-24T12:23:15;5.30;;;2.33;;
4527;SDS011;62320;51.520;6.818;2023-04-24T12:33:17;6.93;;;2.58;;
4527;SDS011;62320;51.520;6.818;2023-04-24T12:43:20;4.90;;;1.87;;
4527;SDS011;62320;51.520;6.818;2023-04-24T12:53:22;4.33;;;1.50;;
4527;SDS011;62320;51.520;6.818;2023-04-24T13:03:23;5.78;;;2.60;;
4527;SDS011;62320;51.520;6.818;2023-04-24T13:13:25;5.75;;;2.13;;
4527;SDS011;62320;51.520;6.818;2023-04-24T13:23:27;5.47;;;1.47;;
4527;SDS011;62320;51.520;6.818;2023-04-24T13:33:29;5.53;;;1.80;;
4527;SDS011;62320;51.520;6.818;2023-04-24T13:43:30;6.28;;;1.88;;
4527;SDS011;62320;51.520;6.818;2023-04-24T13:53:31;3.33;;;0.93;;
4527;SDS011;62320;51.520;6.818;2023-04-24T14:03:34;5.00;;;1.83;;
4527;SDS011;62320;51.520;6.818;2023-04-24T14:13:36;7.05;;;2.40;;
4527;SDS011;62320;51.520;6.818;2023-04-24T14:23:38;6.47;;;2.30;;
4527;SDS011;62320;51.520;6.818;2023-04-24T14:33:40;6.63;;;1.90;;
4527;SDS011;62320;51.520;6.818;2023-04-24T14:43:41;6.00;;;1.90;;
4527;SDS011;62320;51.520;6.818;2023-04-24T14:53:43;6.25;;;1.42;;
4527;SDS011;62320;51.520;6.818;2023-04-24T15:03:48;4.17;;;1.37;;
4527;SDS011;62320;51.520;6.818;2023-04-24T15:13:50;4.97;;;1.50;;
4527;SDS011;62320;51.520;6.818;2023-04-24T15:23:52;5.57;;;1.35;;
4527;SDS011;62320;51.520;6.818;2023-04-24T15:33:53;5.43;;;1.20;;
4527;SDS011;62320;51.520;6.818;2023-04-24T15:43:55;4.13;;;1.37;;
4527;SDS011;62320;51.520;6.818;2023-04-24T15:53:57;4.05;;;1.40;;
4527;SDS011;62320;51.520;6.818;2023-04-24T16:03:58;5.10;;;1.47;;
4527;SDS011;62320;51.520;6.818;2023-04-24T16:14:00;4.13;;;1.43;;
4527;SDS011;62320;51.520;6.818;2023-04-24T16:24:02;7.05;;;1.77;;
4527;SDS011;62320;51.520;6.818;2023-04-24T16:34:03;5.63;;;2.00;;
4527;SDS011;62320;51.520;6.818;2023-04-24T16:44:05;7.70;;;2.90;;
4527;SDS011;62320;51.520;6.818;2023-04-24T16:54:07;5.63;;;2.33;;
4527;SDS011;62320;51.520;6.818;2023-04-24T17:04:08;5.30;;;1.90;;
4527;SDS011;62320;51.520;6.818;2023-04-24T17:14:10;3.87;;;1.33;;
4527;SDS011;62320;51.520;6.818;2023-04-24T17:24:11;6.60;;;2.07;;
4527;SDS011;62320;51.520;6.818;2023-04-24T17:34:12;4.85;;;1.85;;
4527;SDS011;62320;51.520;6.818;2023-04-24T17:44:14;7.70;;;2.10;;
4527;SDS011;62320;51.520;6.818;2023-04-24T17:54:15;7.43;;;1.93;;
4527;SDS011;62320;51.520;6.818;2023-04-24T18:04:18;7.57;;;2.38;;
4527;SDS011;62320;51.520;6.818;2023-04-24T18:14:20;10.52;;;2.70;;
4527;SDS011;62320;51.520;6.818;2023-04-24T18:24:22;6.73;;;2.70;;
4527;SDS011;62320;51.520;6.818;2023-04-24T18:34:23;8.97;;;3.27;;
4527;SDS011;62320;51.520;6.818;2023-04-24T18:44:26;10.85;;;3.47;;
4527;SDS011;62320;51.520;6.818;2023-04-24T18:54:27;9.13;;;2.80;;
4527;SDS011;62320;51.520;6.818;2023-04-24T19:04:28;9.47;;;3.00;;
4527;SDS011;62320;51.520;6.818;2023-04-24T19:14:30;7.88;;;2.50;;
4527;SDS011;62320;51.520;6.818;2023-04-24T19:24:31;7.70;;;2.90;;
4527;SDS011;62320;51.520;6.818;2023-04-24T19:34:33;9.97;;;3.30;;
4527;SDS011;62320;51.520;6.818;2023-04-24T19:44:37;12.23;;;3.85;;
4527;SDS011;62320;51.520;6.818;2023-04-24T19:54:39;10.80;;;3.63;;
4527;SDS011;62320;51.520;6.818;2023-04-24T20:04:40;10.37;;;3.00;;
4527;SDS011;62320;51.520;6.818;2023-04-24T20:14:42;12.40;;;3.40;;
4527;SDS011;62320;51.520;6.818;2023-04-24T20:24:44;14.25;;;3.05;;
4527;SDS011;62320;51.520;6.818;2023-04-24T20:34:46;11.97;;;3.90;;
4527;SDS011;62320;51.520;6.818;2023-04-24T20:44:47;10.03;;;2.80;;
4527;SDS011;62320;51.520;6.818;2023-04-24T20:54:49;10.95;;;3.58;;
4527;SDS011;62320;51.520;6.818;2023-04-24T21:04:50;11.53;;;3.23;;
4527;SDS011;62320;51.520;6.818;2023-04-24T21:14:52;12.13;;;3.83;;
4527;SDS011;62320;51.520;6.818;2023-04-24T21:24:53;12.02;;;4.30;;
4527;SDS011;62320;51.520;6.818;2023-04-24T21:34:55;11.40;;;3.53;;
4527;SDS011;62320;51.520;6.818;2023-04-24T21:44:58;15.63;;;4.23;;
4527;SDS011;62320;51.520;6.818;2023-04-24T21:55:00;10.63;;;3.90;;
4527;SDS011;62320;51.520;6.818;2023-04-24T22:05:02;12.05;;;3.55;;
4527;SDS011;62320;51.520;6.818;2023-04-24T22:15:04;13.37;;;3.67;;
4527;SDS011;62320;51.520;6.818;2023-04-24T22:25:08;14.43;;;3.67;;
4527;SDS011;62320;51.520;6.818;2023-04-24T22:35:09;9.80;;;3.45;;
4527;SDS011;62320;51.520;6.818;2023-04-24T22:45:11;13.43;;;3.93;;
4527;SDS011;62320;51.520;6.818;2023-04-24T22:55:13;13.53;;;3.77;;
4527;SDS011;62320;51.520;6.818;2023-04-24T23:05:15;11.07;;;3.67;;
4527;SDS011;62320;51.520;6.818;2023-04-24T23:15:16;7.75;;;2.38;;
4527;SDS011;62320;51.520;6.818;2023-04-24T23:25:18;12.80;;;3.40;;
4527;SDS011;62320;51.520;6.818;2023-04-24T23:35:20;10.23;;;2.40;;
4527;SDS011;62320;51.520;6.818;2023-04-24T23:45:21;11.23;;;3.20;;
4527;SDS011;62320;51.520;6.818;2023-04-24T23:55:23;7.70;;;2.70;;
